Time;durP1;ratioP1;P1;durP2;ratioP2;P2;SDS_P1;SDS_P2;PMS_P1;PMS_P2;Temp;Humidity;BMP_temperature;BMP_pressure;BME280_temperature;BME280_humidity;BME280_pressure;Samples;Min_cycle;Max_cycle;Signal;HPM_P1;HPM_P2
2022/11/24 00:01:17;;;;;;;3.55;3.30;;;;;;;;;;5049778;28;20037;-75
2022/11/24 00:03:44;;;;;;;0.30;0.30;;;;;;;;;;5048196;28;20466;-75
2022/11/24 00:06:11;;;;;;;0.30;0.30;;;;;;;;;;5031842;28;20036;-76
2022/11/24 00:08:37;;;;;;;0.10;0.10;;;;;;;;;;5054276;28;20033;-76
2022/11/24 00:11:04;;;;;;;0.10;0.10;;;;;;;;;;5064790;28;20029;-75
2022/11/24 00:13:31;;;;;;;0.10;0.10;;;;;;;;;;5069394;28;20463;-75
2022/11/24 00:16:03;;;;;;;0.10;0.10;;;;;;;;;;5070470;28;20033;-76
2022/11/24 00:18:28;;;;;;;0.10;0.10;;;;;;;;;;5072920;28;20029;-75
2022/11/24 00:20:54;;;;;;;0.10;0.10;;;;;;;;;;5072886;28;20040;-74
2022/11/24 00:23:20;;;;;;;0.10;0.10;;;;;;;;;;5073110;28;20031;-75
2022/11/24 00:25:46;;;;;;;0.20;0.20;;;;;;;;;;5072382;28;20084;-75
2022/11/24 00:28:12;;;;;;;0.20;0.20;;;;;;;;;;5073333;28;20508;-75
2022/11/24 00:30:37;;;;;;;1.05;1.05;;;;;;;;;;5072973;28;20031;-74
2022/11/24 00:33:03;;;;;;;0.10;0.10;;;;;;;;;;5072934;28;20025;-75
2022/11/24 00:35:29;;;;;;;0.10;0.10;;;;;;;;;;5073115;28;20031;-74
2022/11/24 00:37:55;;;;;;;2.47;1.08;;;;;;;;;;5072786;28;20071;-73
2022/11/24 00:40:21;;;;;;;5.45;5.15;;;;;;;;;;5071226;28;20025;-74
2022/11/24 00:42:47;;;;;;;1.00;1.00;;;;;;;;;;5072836;28;20043;-75
2022/11/24 00:45:13;;;;;;;0.20;0.20;;;;;;;;;;5072897;28;20028;-74
2022/11/24 00:47:38;;;;;;;0.30;0.30;;;;;;;;;;5071469;28;20028;-74
2022/11/24 00:50:04;;;;;;;1.42;1.33;;;;;;;;;;5072916;28;20521;-73
2022/11/24 00:52:30;;;;;;;0.38;0.38;;;;;;;;;;5072863;28;20086;-78
2022/11/24 00:54:56;;;;;;;0.20;0.20;;;;;;;;;;5072712;28;20024;-77
2022/11/24 00:57:21;;;;;;;0.22;0.22;;;;;;;;;;5073245;28;20052;-78
2022/11/24 00:59:47;;;;;;;0.30;0.30;;;;;;;;;;5076360;28;20097;-79
2022/11/24 01:02:13;;;;;;;0.40;0.40;;;;;;;;;;5076425;28;20032;-75
2022/11/24 01:04:39;;;;;;;0.32;0.32;;;;;;;;;;5076520;28;20025;-77
2022/11/24 01:07:05;;;;;;;0.10;0.10;;;;;;;;;;5076480;28;20410;-75
2022/11/24 01:09:31;;;;;;;0.52;0.52;;;;;;;;;;5076601;28;20111;-75
2022/11/24 01:12:03;;;;;;;0.55;0.55;;;;;;;;;;5075797;28;20038;-76
2022/11/24 01:14:29;;;;;;;0.55;0.55;;;;;;;;;;5076478;28;20078;-75
2022/11/24 01:16:55;;;;;;;0.20;0.20;;;;;;;;;;5074842;28;20464;-76
2022/11/24 01:19:22;;;;;;;0.30;0.30;;;;;;;;;;5076264;28;20036;-76
2022/11/24 01:21:48;;;;;;;0.63;0.63;;;;;;;;;;5076326;28;20036;-76
2022/11/24 01:24:14;;;;;;;0.45;0.45;;;;;;;;;;5076180;28;20411;-76
2022/11/24 01:26:40;;;;;;;0.15;0.15;;;;;;;;;;5075497;28;20025;-75
2022/11/24 01:29:06;;;;;;;0.10;0.10;;;;;;;;;;5076300;28;20051;-75
2022/11/24 01:31:32;;;;;;;2.47;1.33;;;;;;;;;;5075687;28;20028;-75
2022/11/24 01:33:57;;;;;;;0.50;0.50;;;;;;;;;;5076126;28;20032;-75
2022/11/24 01:36:23;;;;;;;0.22;0.22;;;;;;;;;;5074450;28;20032;-75
2022/11/24 01:38:49;;;;;;;0.38;0.38;;;;;;;;;;5075429;28;20030;-75
2022/11/24 01:41:19;;;;;;;0.20;0.20;;;;;;;;;;5075853;28;20025;-75
2022/11/24 01:43:45;;;;;;;0.10;0.10;;;;;;;;;;5075744;28;20036;-75
2022/11/24 01:46:14;;;;;;;0.10;0.10;;;;;;;;;;5074256;28;20032;-75
2022/11/24 01:48:42;;;;;;;0.10;0.10;;;;;;;;;;5074532;28;20486;-76
2022/11/24 01:51:20;;;;;;;5.38;5.05;;;;;;;;;;5074937;28;20357;-76
2022/11/24 01:53:50;;;;;;;0.10;0.10;;;;;;;;;;5075102;28;20035;-76
2022/11/24 01:56:17;;;;;;;0.38;0.38;;;;;;;;;;5074085;28;20035;-76
2022/11/24 01:58:44;;;;;;;0.47;0.40;;;;;;;;;;5073790;28;20442;-76
2022/11/24 02:01:09;;;;;;;1.52;1.45;;;;;;;;;;5075319;28;20028;-75
2022/11/24 02:03:38;;;;;;;1.15;1.15;;;;;;;;;;5073978;28;20032;-76
2022/11/24 02:06:08;;;;;;;0.10;0.10;;;;;;;;;;5075415;28;20081;-76
2022/11/24 02:08:38;;;;;;;0.20;0.20;;;;;;;;;;5074967;28;20032;-76
2022/11/24 02:11:04;;;;;;;1.05;1.05;;;;;;;;;;5073962;28;20357;-76
2022/11/24 02:13:32;;;;;;;0.52;0.38;;;;;;;;;;5075156;28;20429;-75
2022/11/24 02:15:58;;;;;;;0.45;0.45;;;;;;;;;;5075278;28;20119;-75
2022/11/24 02:18:24;;;;;;;0.43;0.43;;;;;;;;;;5074329;28;20025;-76
2022/11/24 02:20:50;;;;;;;0.20;0.20;;;;;;;;;;5074986;28;20033;-79
2022/11/24 02:23:18;;;;;;;0.20;0.20;;;;;;;;;;5074167;28;20028;-79
2022/11/24 02:25:50;;;;;;;0.93;0.90;;;;;;;;;;5074209;28;20024;-80
2022/11/24 02:28:18;;;;;;;0.10;0.10;;;;;;;;;;5075007;28;20031;-79
2022/11/24 02:30:44;;;;;;;0.22;0.22;;;;;;;;;;5074999;28;20154;-80
2022/11/24 02:33:11;;;;;;;0.10;0.10;;;;;;;;;;5073588;28;20095;-79
2022/11/24 02:35:36;;;;;;;0.10;0.10;;;;;;;;;;5073548;28;20102;-79
2022/11/24 02:38:03;;;;;;;0.75;0.75;;;;;;;;;;5073391;28;20476;-80
2022/11/24 02:40:29;;;;;;;0.10;0.10;;;;;;;;;;5074454;28;20020;-78
2022/11/24 02:42:57;;;;;;;0.10;0.10;;;;;;;;;;5074767;28;20371;-78
2022/11/24 02:45:25;;;;;;;0.20;0.20;;;;;;;;;;5074572;28;20028;-80
2022/11/24 02:47:51;;;;;;;0.10;0.10;;;;;;;;;;5074550;28;20066;-79
2022/11/24 02:50:17;;;;;;;0.10;0.10;;;;;;;;;;5074458;28;20464;-79
2022/11/24 02:52:42;;;;;;;0.20;0.20;;;;;;;;;;5072851;28;20345;-81
2022/11/24 02:55:08;;;;;;;0.10;0.10;;;;;;;;;;5074106;28;20060;-74
2022/11/24 02:57:35;;;;;;;0.43;0.43;;;;;;;;;;5073109;28;20098;-74
2022/11/24 03:00:00;;;;;;;0.10;0.10;;;;;;;;;;5074382;28;20039;-76
2022/11/24 03:02:26;;;;;;;0.20;0.20;;;;;;;;;;5074234;28;20025;-76
2022/11/24 03:04:53;;;;;;;0.10;0.10;;;;;;;;;;5072974;28;20467;-76
2022/11/24 03:07:19;;;;;;;0.75;0.75;;;;;;;;;;5074193;28;20023;-75
2022/11/24 03:09:44;;;;;;;0.52;0.52;;;;;;;;;;5073914;28;20020;-76
2022/11/24 03:12:10;;;;;;;0.10;0.10;;;;;;;;;;5073495;28;20491;-74
2022/11/24 03:14:36;;;;;;;1.13;1.10;;;;;;;;;;5074188;28;20024;-73
2022/11/24 03:17:02;;;;;;;0.73;0.73;;;;;;;;;;5072759;28;20028;-76
2022/11/24 03:19:28;;;;;;;0.28;0.28;;;;;;;;;;5071747;28;20045;-75
2022/11/24 03:21:55;;;;;;;0.20;0.20;;;;;;;;;;5073489;28;20107;-75
2022/11/24 03:24:20;;;;;;;0.20;0.20;;;;;;;;;;5072956;28;20067;-76
2022/11/24 03:26:46;;;;;;;1.65;1.45;;;;;;;;;;5073763;28;20021;-76
2022/11/24 03:29:12;;;;;;;0.60;0.60;;;;;;;;;;5073022;28;20039;-76
2022/11/24 03:31:38;;;;;;;0.30;0.30;;;;;;;;;;5072592;28;20028;-76
2022/11/24 03:34:04;;;;;;;0.10;0.10;;;;;;;;;;5071945;28;20031;-76
2022/11/24 03:36:29;;;;;;;0.57;0.57;;;;;;;;;;5106285;28;20027;-76
2022/11/24 03:38:55;;;;;;;0.10;0.10;;;;;;;;;;5072748;28;20036;-75
2022/11/24 03:41:21;;;;;;;0.20;0.20;;;;;;;;;;5072409;28;20364;-76
2022/11/24 03:43:46;;;;;;;0.10;0.10;;;;;;;;;;5073459;28;20070;-76
2022/11/24 03:46:12;;;;;;;1.42;1.35;;;;;;;;;;5073472;28;20032;-76
2022/11/24 03:48:38;;;;;;;0.10;0.10;;;;;;;;;;5054953;28;20051;-77
2022/11/24 03:51:04;;;;;;;0.73;0.73;;;;;;;;;;5073140;28;20020;-76
2022/11/24 03:53:31;;;;;;;0.20;0.20;;;;;;;;;;5073273;28;20031;-75
2022/11/24 03:55:57;;;;;;;0.10;0.10;;;;;;;;;;5071346;28;20422;-76
2022/11/24 03:58:23;;;;;;;0.20;0.20;;;;;;;;;;5069455;28;20081;-75
2022/11/24 04:00:49;;;;;;;0.20;0.20;;;;;;;;;;5071362;28;20595;-76
2022/11/24 04:03:15;;;;;;;1.05;1.05;;;;;;;;;;5065857;28;20020;-75
2022/11/24 04:05:41;;;;;;;0.10;0.10;;;;;;;;;;5067486;28;20051;-76
2022/11/24 04:08:07;;;;;;;0.43;0.43;;;;;;;;;;5067078;28;20093;-75
2022/11/24 04:10:35;;;;;;;0.20;0.20;;;;;;;;;;5065798;28;20028;-75
2022/11/24 04:13:02;;;;;;;0.10;0.10;;;;;;;;;;5068622;28;20032;-75
2022/11/24 04:15:28;;;;;;;0.30;0.30;;;;;;;;;;5069850;28;20024;-76
2022/11/24 04:17:54;;;;;;;0.20;0.20;;;;;;;;;;5069195;28;20029;-77
2022/11/24 04:20:20;;;;;;;0.63;0.63;;;;;;;;;;5068445;28;20449;-76
2022/11/24 04:22:45;;;;;;;0.10;0.10;;;;;;;;;;5069373;28;20041;-75
2022/11/24 04:25:12;;;;;;;0.10;0.10;;;;;;;;;;5069445;28;20108;-75
2022/11/24 04:27:38;;;;;;;0.95;0.95;;;;;;;;;;5069205;28;20032;-75
2022/11/24 04:30:04;;;;;;;0.20;0.20;;;;;;;;;;5069871;28;20024;-77
2022/11/24 04:32:30;;;;;;;0.10;0.10;;;;;;;;;;5072269;28;20166;-77
2022/11/24 04:34:56;;;;;;;0.10;0.10;;;;;;;;;;5072653;28;20111;-77
2022/11/24 04:37:21;;;;;;;0.10;0.10;;;;;;;;;;5073270;28;20024;-77
2022/11/24 04:39:47;;;;;;;0.20;0.20;;;;;;;;;;5072716;28;20058;-76
2022/11/24 04:42:13;;;;;;;0.20;0.20;;;;;;;;;;5073623;28;20056;-77
2022/11/24 04:44:38;;;;;;;0.10;0.10;;;;;;;;;;5073015;28;20070;-76
2022/11/24 04:47:04;;;;;;;0.10;0.10;;;;;;;;;;5072002;28;20078;-76
2022/11/24 04:49:30;;;;;;;0.20;0.20;;;;;;;;;;5071423;28;20040;-76
2022/11/24 04:51:56;;;;;;;0.10;0.10;;;;;;;;;;5072983;28;20012;-76
2022/11/24 04:54:22;;;;;;;0.20;0.20;;;;;;;;;;5071136;28;20431;-75
2022/11/24 04:56:50;;;;;;;0.10;0.10;;;;;;;;;;5071496;28;20020;-76
2022/11/24 04:59:17;;;;;;;7.53;3.75;;;;;;;;;;5071604;28;20044;-76
2022/11/24 05:01:43;;;;;;;0.10;0.10;;;;;;;;;;5071750;28;20028;-75
2022/11/24 05:04:10;;;;;;;5.28;3.92;;;;;;;;;;5072781;28;20120;-75
2022/11/24 05:06:36;;;;;;;0.10;0.10;;;;;;;;;;5072614;28;20032;-75
2022/11/24 05:09:02;;;;;;;0.20;0.20;;;;;;;;;;5071735;28;20029;-75
2022/11/24 05:11:28;;;;;;;0.17;0.17;;;;;;;;;;5071760;28;20032;-74
2022/11/24 05:13:54;;;;;;;0.20;0.20;;;;;;;;;;5072174;28;20483;-75
2022/11/24 05:16:20;;;;;;;0.10;0.10;;;;;;;;;;5071473;28;20025;-76
2022/11/24 05:18:46;;;;;;;0.13;0.13;;;;;;;;;;5072127;28;20063;-75
2022/11/24 05:21:11;;;;;;;0.13;0.13;;;;;;;;;;5072740;28;20018;-75
2022/11/24 05:23:37;;;;;;;0.10;0.10;;;;;;;;;;5072153;28;20035;-76
2022/11/24 05:26:03;;;;;;;0.10;0.10;;;;;;;;;;5071807;28;20027;-77
2022/11/24 05:28:29;;;;;;;0.10;0.10;;;;;;;;;;5072128;28;20029;-77
2022/11/24 05:31:01;;;;;;;0.10;0.10;;;;;;;;;;5071119;28;20459;-75
2022/11/24 05:33:28;;;;;;;0.10;0.10;;;;;;;;;;5072585;28;20554;-76
2022/11/24 05:35:58;;;;;;;0.10;0.10;;;;;;;;;;5071697;28;20021;-76
2022/11/24 05:38:25;;;;;;;;;;;;;;;;;;5072383;28;20446;-77
2022/11/24 05:40:51;;;;;;;0.10;0.10;;;;;;;;;;5071219;28;19916;-76
2022/11/24 05:43:17;;;;;;;0.10;0.10;;;;;;;;;;5069819;28;20119;-76
2022/11/24 05:45:43;;;;;;;0.10;0.10;;;;;;;;;;5071037;28;20162;-76
2022/11/24 05:48:11;;;;;;;0.10;0.10;;;;;;;;;;5069204;28;20024;-76
2022/11/24 05:50:37;;;;;;;0.10;0.10;;;;;;;;;;5071376;28;20380;-76
2022/11/24 05:53:09;;;;;;;0.20;0.20;;;;;;;;;;5070791;28;20046;-77
2022/11/24 05:55:36;;;;;;;0.20;0.20;;;;;;;;;;5070138;28;20060;-77
2022/11/24 05:58:03;;;;;;;0.10;0.10;;;;;;;;;;5070534;28;20456;-77
2022/11/24 06:00:29;;;;;;;0.17;0.17;;;;;;;;;;5070408;28;20028;-76
2022/11/24 06:02:59;;;;;;;0.10;0.10;;;;;;;;;;5071259;28;20039;-76
2022/11/24 06:05:25;;;;;;;0.25;0.25;;;;;;;;;;5069908;28;20032;-76
2022/11/24 06:07:51;;;;;;;0.10;0.10;;;;;;;;;;5069927;28;20063;-76
2022/11/24 06:10:17;;;;;;;0.17;0.17;;;;;;;;;;5070206;28;20056;-76
2022/11/24 06:12:43;;;;;;;0.10;0.10;;;;;;;;;;5050040;28;20048;-75
2022/11/24 06:15:10;;;;;;;0.10;0.10;;;;;;;;;;5063751;28;20021;-75
2022/11/24 06:17:36;;;;;;;0.20;0.20;;;;;;;;;;5068980;28;20027;-75
2022/11/24 06:20:01;;;;;;;0.10;0.10;;;;;;;;;;5069963;28;20503;-74
2022/11/24 06:22:27;;;;;;;0.10;0.10;;;;;;;;;;5051753;28;20036;-75
2022/11/24 06:24:53;;;;;;;0.10;0.10;;;;;;;;;;5069991;28;20017;-75
2022/11/24 06:27:18;;;;;;;0.10;0.10;;;;;;;;;;5070748;28;20032;-76
2022/11/24 06:29:45;;;;;;;0.30;0.30;;;;;;;;;;5063228;28;20107;-76
2022/11/24 06:32:11;;;;;;;0.68;0.68;;;;;;;;;;5069688;28;20082;-74
2022/11/24 06:34:37;;;;;;;0.20;0.20;;;;;;;;;;5070831;28;20460;-76
2022/11/24 06:37:03;;;;;;;0.20;0.20;;;;;;;;;;5068571;28;20033;-75
2022/11/24 06:39:28;;;;;;;0.10;0.10;;;;;;;;;;5070645;28;20032;-75
2022/11/24 06:41:54;;;;;;;0.10;0.10;;;;;;;;;;5052588;28;20024;-74
2022/11/24 06:44:21;;;;;;;0.22;0.22;;;;;;;;;;5069796;28;20060;-75
2022/11/24 06:46:47;;;;;;;0.17;0.17;;;;;;;;;;5050360;28;20502;-74
2022/11/24 06:49:12;;;;;;;0.20;0.20;;;;;;;;;;5056002;28;20032;-76
2022/11/24 06:51:38;;;;;;;0.20;0.20;;;;;;;;;;5054593;28;20484;-75
2022/11/24 06:54:07;;;;;;;0.10;0.10;;;;;;;;;;5069713;28;20119;-76
2022/11/24 06:56:33;;;;;;;0.30;0.30;;;;;;;;;;5070457;28;20016;-75
2022/11/24 06:58:58;;;;;;;0.10;0.10;;;;;;;;;;5070507;28;20048;-75
2022/11/24 07:01:25;;;;;;;0.10;0.10;;;;;;;;;;5070861;28;20090;-76
2022/11/24 07:03:51;;;;;;;0.45;0.45;;;;;;;;;;5070296;28;20017;-76
2022/11/24 07:06:18;;;;;;;2.42;2.22;;;;;;;;;;5051505;28;20037;-76
2022/11/24 07:08:43;;;;;;;0.10;0.10;;;;;;;;;;5069081;28;20029;-74
2022/11/24 07:11:11;;;;;;;0.20;0.20;;;;;;;;;;5070176;28;20066;-75
2022/11/24 07:13:36;;;;;;;0.10;0.10;;;;;;;;;;5068545;28;20349;-75
2022/11/24 07:16:12;;;;;;;7.38;5.47;;;;;;;;;;5070240;28;20082;-75
2022/11/24 07:18:37;;;;;;;0.55;0.55;;;;;;;;;;5069692;28;20064;-76
2022/11/24 07:21:03;;;;;;;0.10;0.10;;;;;;;;;;5070002;28;20067;-75
2022/11/24 07:23:28;;;;;;;2.05;1.95;;;;;;;;;;5070136;28;20012;-75
2022/11/24 07:25:54;;;;;;;0.10;0.10;;;;;;;;;;5069068;28;20039;-74
2022/11/24 07:28:19;;;;;;;0.10;0.10;;;;;;;;;;5069135;28;20029;-74
2022/11/24 07:30:45;;;;;;;0.15;0.15;;;;;;;;;;5063454;28;20025;-74
2022/11/24 07:33:10;;;;;;;0.10;0.10;;;;;;;;;;5050105;28;20480;-75
2022/11/24 07:35:36;;;;;;;0.20;0.20;;;;;;;;;;5082317;28;20056;-74
2022/11/24 07:38:01;;;;;;;0.10;0.10;;;;;;;;;;5048569;28;20480;-75
2022/11/24 07:40:27;;;;;;;1.90;1.80;;;;;;;;;;5049849;28;20035;-74
2022/11/24 07:42:53;;;;;;;0.15;0.15;;;;;;;;;;5047105;28;20021;-76
2022/11/24 07:45:18;;;;;;;0.10;0.10;;;;;;;;;;5047829;28;20051;-75
2022/11/24 07:47:44;;;;;;;0.10;0.10;;;;;;;;;;5080377;28;20025;-74
2022/11/24 07:50:09;;;;;;;0.45;0.45;;;;;;;;;;5049043;28;20028;-75
2022/11/24 07:52:35;;;;;;;0.10;0.10;;;;;;;;;;5048699;28;20108;-74
2022/11/24 07:55:01;;;;;;;0.10;0.10;;;;;;;;;;5048575;28;20017;-74
2022/11/24 07:57:27;;;;;;;0.68;0.68;;;;;;;;;;5047885;28;20060;-76
2022/11/24 07:59:53;;;;;;;0.57;0.57;;;;;;;;;;5048987;28;20033;-75
2022/11/24 08:02:19;;;;;;;0.65;0.65;;;;;;;;;;5049231;28;20079;-74
2022/11/24 08:04:44;;;;;;;0.10;0.10;;;;;;;;;;5049017;28;20076;-75
2022/11/24 08:07:10;;;;;;;0.10;0.10;;;;;;;;;;5048421;28;20017;-75
2022/11/24 08:09:35;;;;;;;0.10;0.10;;;;;;;;;;5049506;28;20094;-74
2022/11/24 08:12:01;;;;;;;0.30;0.30;;;;;;;;;;5049686;28;20460;-77
2022/11/24 08:14:26;;;;;;;0.20;0.20;;;;;;;;;;5049220;28;20072;-77
2022/11/24 08:16:52;;;;;;;0.43;0.43;;;;;;;;;;5054132;28;20123;-77
2022/11/24 08:19:18;;;;;;;0.10;0.10;;;;;;;;;;5096211;28;20051;-75
2022/11/24 08:21:43;;;;;;;0.15;0.15;;;;;;;;;;5069616;28;20432;-74
2022/11/24 08:24:08;;;;;;;0.10;0.10;;;;;;;;;;5069413;28;20102;-76
2022/11/24 08:26:34;;;;;;;0.68;0.68;;;;;;;;;;5069247;28;20033;-75
2022/11/24 08:28:59;;;;;;;0.10;0.10;;;;;;;;;;5067807;28;20025;-75
2022/11/24 08:31:31;;;;;;;0.10;0.10;;;;;;;;;;5069317;28;20032;-76
2022/11/24 08:33:57;;;;;;;0.10;0.10;;;;;;;;;;5067951;28;20044;-76
2022/11/24 08:36:22;;;;;;;0.20;0.20;;;;;;;;;;5068240;28;20097;-76
2022/11/24 08:38:53;;;;;;;0.10;0.10;;;;;;;;;;5069314;28;20044;-75
2022/11/24 08:41:18;;;;;;;0.10;0.10;;;;;;;;;;5068767;28;20083;-75
2022/11/24 08:43:44;;;;;;;0.15;0.15;;;;;;;;;;5068511;28;20084;-77
2022/11/24 08:46:11;;;;;;;0.20;0.20;;;;;;;;;;5069386;28;20020;-75
2022/11/24 08:48:36;;;;;;;0.10;0.10;;;;;;;;;;5069019;28;20020;-75
2022/11/24 08:51:09;;;;;;;0.20;0.20;;;;;;;;;;5056186;28;20384;-74
2022/11/24 08:53:35;;;;;;;0.20;0.20;;;;;;;;;;5066902;28;20039;-74
2022/11/24 08:56:00;;;;;;;0.20;0.20;;;;;;;;;;5068949;28;20025;-76
2022/11/24 08:58:27;;;;;;;0.60;0.57;;;;;;;;;;5068046;28;20040;-75
2022/11/24 09:00:52;;;;;;;3.47;3.22;;;;;;;;;;5068605;28;20075;-73
2022/11/24 09:03:18;;;;;;;0.20;0.20;;;;;;;;;;5068962;28;20505;-74
2022/11/24 09:05:43;;;;;;;0.30;0.30;;;;;;;;;;5068712;28;20025;-76
2022/11/24 09:08:08;;;;;;;0.20;0.20;;;;;;;;;;5064857;28;20036;-73
2022/11/24 09:10:35;;;;;;;0.20;0.20;;;;;;;;;;5057419;28;20024;-76
2022/11/24 09:13:00;;;;;;;0.28;0.28;;;;;;;;;;5064392;28;20125;-73
2022/11/24 09:15:26;;;;;;;0.55;0.55;;;;;;;;;;5068503;28;20051;-73
2022/11/24 09:17:52;;;;;;;0.25;0.25;;;;;;;;;;5070742;28;20446;-73
2022/11/24 09:20:17;;;;;;;0.30;0.30;;;;;;;;;;5070680;28;20032;-73
2022/11/24 09:22:42;;;;;;;0.20;0.20;;;;;;;;;;5065817;28;20931;-73
2022/11/24 09:25:08;;;;;;;0.30;0.30;;;;;;;;;;5071060;28;20039;-73
2022/11/24 09:27:34;;;;;;;0.20;0.20;;;;;;;;;;5071461;28;20032;-72
2022/11/24 09:30:00;;;;;;;0.20;0.20;;;;;;;;;;5071719;28;20664;-74
2022/11/24 09:32:27;;;;;;;0.30;0.30;;;;;;;;;;5069704;28;20872;-74
2022/11/24 09:34:52;;;;;;;0.20;0.20;;;;;;;;;;5071898;28;20025;-74
2022/11/24 09:37:18;;;;;;;0.30;0.30;;;;;;;;;;5071932;28;20487;-74
2022/11/24 09:39:43;;;;;;;0.30;0.30;;;;;;;;;;5071810;28;20040;-74
2022/11/24 09:42:09;;;;;;;0.30;0.30;;;;;;;;;;5070467;28;20025;-74
2022/11/24 09:44:40;;;;;;;0.20;0.20;;;;;;;;;;5071995;28;20025;-73
2022/11/24 09:47:15;;;;;;;0.13;0.13;;;;;;;;;;5071020;28;20487;-74
2022/11/24 09:49:59;;;;;;;0.20;0.20;;;;;;;;;;5065142;28;20064;-74
2022/11/24 09:52:45;;;;;;;0.20;0.20;;;;;;;;;;5081680;28;20476;-73
2022/11/24 09:55:19;;;;;;;0.20;0.20;;;;;;;;;;5064451;28;20041;-74
2022/11/24 09:57:48;;;;;;;0.20;0.20;;;;;;;;;;5070203;28;20051;-74
2022/11/24 10:00:13;;;;;;;0.20;0.20;;;;;;;;;;5071626;28;20604;-74
2022/11/24 10:02:39;;;;;;;0.20;0.20;;;;;;;;;;5070982;28;20028;-74
2022/11/24 10:05:05;;;;;;;0.20;0.20;;;;;;;;;;5071911;28;20071;-74
2022/11/24 10:07:38;;;;;;;0.22;0.22;;;;;;;;;;5070525;28;20025;-74
2022/11/24 10:10:14;;;;;;;1.48;1.40;;;;;;;;;;5070368;28;20563;-69
2022/11/24 10:12:56;;;;;;;0.20;0.20;;;;;;;;;;5071394;28;20026;-70
2022/11/24 10:15:23;;;;;;;0.22;0.22;;;;;;;;;;5071321;28;20020;-69
2022/11/24 10:18:12;;;;;;;0.20;0.20;;;;;;;;;;5070592;28;20033;-68
2022/11/24 10:20:37;;;;;;;0.30;0.30;;;;;;;;;;5065774;28;20136;-70
2022/11/24 10:23:12;;;;;;;0.22;0.22;;;;;;;;;;5070263;28;20119;-68
2022/11/24 10:25:40;;;;;;;0.20;0.20;;;;;;;;;;5071110;28;20062;-69
2022/11/24 10:28:09;;;;;;;0.50;0.50;;;;;;;;;;5068579;28;20070;-69
2022/11/24 10:30:36;;;;;;;0.20;0.20;;;;;;;;;;5069806;28;20095;-69
2022/11/24 10:33:05;;;;;;;0.20;0.20;;;;;;;;;;5068544;28;20021;-69
2022/11/24 10:35:36;;;;;;;0.30;0.30;;;;;;;;;;5069499;28;20029;-70
2022/11/24 10:38:13;;;;;;;0.20;0.20;;;;;;;;;;5069505;28;20131;-70
2022/11/24 10:40:43;;;;;;;0.30;0.30;;;;;;;;;;5068456;28;20028;-72
2022/11/24 10:43:11;;;;;;;0.20;0.20;;;;;;;;;;5067483;28;20032;-71
2022/11/24 10:45:38;;;;;;;0.20;0.20;;;;;;;;;;5065013;28;20472;-69
2022/11/24 10:48:10;;;;;;;0.20;0.20;;;;;;;;;;5066397;28;20123;-69
2022/11/24 10:50:37;;;;;;;0.20;0.20;;;;;;;;;;5066224;28;20027;-70
2022/11/24 10:53:14;;;;;;;0.20;0.20;;;;;;;;;;5065521;28;20032;-76
2022/11/24 10:55:55;;;;;;;0.20;0.20;;;;;;;;;;5065297;28;20036;-72
2022/11/24 10:58:26;;;;;;;2.58;1.33;;;;;;;;;;5065237;28;20036;-70
2022/11/24 11:00:53;;;;;;;0.20;0.20;;;;;;;;;;5066699;28;20059;-71
2022/11/24 11:03:22;;;;;;;0.20;0.20;;;;;;;;;;5066465;28;20028;-73
2022/11/24 11:06:09;;;;;;;0.20;0.20;;;;;;;;;;5066625;28;20056;-69
2022/11/24 11:08:34;;;;;;;0.20;0.20;;;;;;;;;;5068455;28;20519;-69
2022/11/24 11:11:22;;;;;;;1.45;0.88;;;;;;;;;;5068623;28;20039;-68
2022/11/24 11:13:56;;;;;;;0.20;0.20;;;;;;;;;;5070086;28;20044;-69
2022/11/24 11:16:25;;;;;;;0.20;0.20;;;;;;;;;;5070542;28;20037;-69
2022/11/24 11:18:51;;;;;;;0.20;0.20;;;;;;;;;;5069666;28;20033;-69
2022/11/24 11:21:30;;;;;;;0.43;0.40;;;;;;;;;;5070188;28;20106;-70
2022/11/24 11:23:56;;;;;;;0.55;0.55;;;;;;;;;;5068713;28;20120;-69
2022/11/24 11:26:26;;;;;;;0.20;0.20;;;;;;;;;;5070096;28;20103;-68
2022/11/24 11:28:58;;;;;;;0.20;0.20;;;;;;;;;;5070008;28;20028;-70
2022/11/24 11:31:24;;;;;;;0.20;0.20;;;;;;;;;;5069845;28;20067;-69
2022/11/24 11:33:54;;;;;;;0.20;0.20;;;;;;;;;;5070135;28;20044;-71
2022/11/24 11:36:20;;;;;;;0.20;0.20;;;;;;;;;;5070138;28;20035;-69
2022/11/24 11:38:45;;;;;;;0.32;0.32;;;;;;;;;;5070036;28;20036;-69
2022/11/24 11:41:17;;;;;;;0.30;0.30;;;;;;;;;;5069385;28;20032;-69
2022/11/24 11:43:44;;;;;;;0.10;0.10;;;;;;;;;;5070301;28;20466;-69
2022/11/24 11:46:16;;;;;;;0.20;0.20;;;;;;;;;;5069442;28;20107;-75
2022/11/24 11:48:45;;;;;;;0.22;0.22;;;;;;;;;;5068750;28;20384;-69
2022/11/24 11:51:11;;;;;;;;;;;;;;;;;;5070112;28;20033;-69
2022/11/24 11:53:47;;;;;;;0.20;0.20;;;;;;;;;;5069817;28;19974;-69
2022/11/24 11:56:27;;;;;;;0.20;0.20;;;;;;;;;;5051997;28;20275;-75
2022/11/24 11:59:03;;;;;;;0.20;0.20;;;;;;;;;;5069227;28;20060;-69
2022/11/24 12:01:30;;;;;;;0.20;0.20;;;;;;;;;;5069261;28;20048;-71
2022/11/24 12:04:19;;;;;;;2.53;2.33;;;;;;;;;;5069639;28;20036;-70
2022/11/24 12:06:44;;;;;;;0.20;0.20;;;;;;;;;;5058957;28;20439;-76
2022/11/24 12:09:19;;;;;;;0.20;0.20;;;;;;;;;;5069357;28;20157;-70
2022/11/24 12:11:52;;;;;;;0.20;0.20;;;;;;;;;;5069104;28;20031;-72
2022/11/24 12:14:26;;;;;;;0.20;0.20;;;;;;;;;;5069285;28;20257;-69
2022/11/24 12:17:04;;;;;;;0.30;0.30;;;;;;;;;;5068839;28;20036;-69
2022/11/24 12:19:32;;;;;;;0.20;0.20;;;;;;;;;;5068972;28;20041;-73
2022/11/24 12:22:08;;;;;;;0.25;0.25;;;;;;;;;;5069276;28;20027;-68
2022/11/24 12:24:49;;;;;;;0.20;0.20;;;;;;;;;;5067354;28;20383;-70
2022/11/24 12:27:35;;;;;;;0.30;0.30;;;;;;;;;;5069574;28;20438;-68
2022/11/24 12:30:00;;;;;;;0.52;0.52;;;;;;;;;;5068783;28;20487;-69
2022/11/24 12:32:42;;;;;;;0.20;0.20;;;;;;;;;;5069203;28;20025;-70
2022/11/24 12:35:13;;;;;;;0.20;0.20;;;;;;;;;;5069043;28;20041;-68
2022/11/24 12:37:39;;;;;;;0.20;0.20;;;;;;;;;;5069437;28;20025;-68
2022/11/24 12:40:12;;;;;;;0.20;0.20;;;;;;;;;;5067593;28;20043;-72
2022/11/24 12:42:45;;;;;;;0.20;0.20;;;;;;;;;;5050781;28;20037;-71
2022/11/24 12:45:13;;;;;;;0.20;0.20;;;;;;;;;;5069248;28;20082;-69
2022/11/24 12:47:47;;;;;;;0.20;0.20;;;;;;;;;;5068514;28;20086;-71
2022/11/24 12:50:13;;;;;;;0.20;0.20;;;;;;;;;;5068865;28;20427;-68
2022/11/24 12:52:43;;;;;;;0.20;0.20;;;;;;;;;;5071911;28;20064;-69
2022/11/24 12:55:17;;;;;;;0.20;0.20;;;;;;;;;;5071379;28;20039;-70
2022/11/24 12:57:46;;;;;;;0.38;0.35;;;;;;;;;;5071243;28;20053;-70
2022/11/24 13:00:11;;;;;;;;;;;;;;;;;;5073286;28;20419;-68
2022/11/24 13:02:50;;;;;;;1.53;0.60;;;;;;;;;;5072607;28;19916;-69
2022/11/24 13:05:38;;;;;;;0.20;0.20;;;;;;;;;;5070813;28;20310;-73
2022/11/24 13:08:04;;;;;;;2.00;0.90;;;;;;;;;;5063447;28;20048;-70
2022/11/24 13:10:39;;;;;;;0.38;0.38;;;;;;;;;;5069513;28;20020;-69
2022/11/24 13:13:08;;;;;;;0.30;0.30;;;;;;;;;;5064718;28;20501;-69
2022/11/24 13:15:52;;;;;;;0.20;0.20;;;;;;;;;;5068730;28;20513;-70
2022/11/24 13:18:37;;;;;;;0.20;0.20;;;;;;;;;;5060196;28;20128;-69
2022/11/24 13:21:02;;;;;;;0.20;0.20;;;;;;;;;;5055132;28;20119;-73
2022/11/24 13:23:28;;;;;;;3.15;2.85;;;;;;;;;;5048816;28;20175;-71
2022/11/24 13:26:13;;;;;;;0.20;0.20;;;;;;;;;;5047373;28;20028;-71
2022/11/24 13:28:59;;;;;;;2.33;1.60;;;;;;;;;;5061714;28;20059;-70
2022/11/24 13:31:25;;;;;;;0.30;0.30;;;;;;;;;;5051480;28;20033;-68
2022/11/24 13:33:51;;;;;;;0.30;0.30;;;;;;;;;;5051794;28;20075;-68
2022/11/24 13:36:22;;;;;;;0.20;0.20;;;;;;;;;;5075177;28;20025;-69
2022/11/24 13:38:48;;;;;;;0.20;0.20;;;;;;;;;;5058331;28;20550;-69
2022/11/24 13:41:32;;;;;;;0.20;0.20;;;;;;;;;;5063257;28;20064;-69
2022/11/24 13:44:12;;;;;;;0.20;0.20;;;;;;;;;;5063198;28;20103;-69
2022/11/24 13:47:00;;;;;;;0.13;0.13;;;;;;;;;;5069044;28;20448;-70
2022/11/24 13:49:38;;;;;;;0.20;0.20;;;;;;;;;;5065545;28;20043;-70
2022/11/24 13:52:23;;;;;;;0.20;0.20;;;;;;;;;;5070153;28;20028;-71
2022/11/24 13:54:48;;;;;;;3.42;0.90;;;;;;;;;;5069605;28;20062;-72
2022/11/24 13:57:33;;;;;;;0.20;0.20;;;;;;;;;;5069972;28;20131;-72
2022/11/24 13:59:59;;;;;;;0.75;0.30;;;;;;;;;;5069316;28;20029;-69
2022/11/24 14:02:25;;;;;;;0.20;0.20;;;;;;;;;;5069981;28;20020;-74
2022/11/24 14:04:51;;;;;;;2.10;1.08;;;;;;;;;;5069556;28;20028;-69
2022/11/24 14:07:16;;;;;;;0.65;0.55;;;;;;;;;;5071042;28;20519;-70
2022/11/24 14:09:46;;;;;;;3.40;0.95;;;;;;;;;;5069268;28;20104;-71
2022/11/24 14:12:13;;;;;;;0.40;0.35;;;;;;;;;;5069911;28;20074;-70
2022/11/24 14:14:39;;;;;;;0.20;0.20;;;;;;;;;;5069237;28;20475;-70
2022/11/24 14:17:26;;;;;;;0.32;0.32;;;;;;;;;;5069640;28;20078;-70
2022/11/24 14:19:55;;;;;;;0.30;0.30;;;;;;;;;;5069356;28;20127;-70
2022/11/24 14:22:30;;;;;;;0.65;0.65;;;;;;;;;;5068958;28;20052;-68
2022/11/24 14:25:00;;;;;;;7.03;0.52;;;;;;;;;;5052991;28;20070;-69
2022/11/24 14:27:30;;;;;;;1.55;0.57;;;;;;;;;;5053588;28;20452;-69
2022/11/24 14:29:57;;;;;;;0.10;0.10;;;;;;;;;;5070907;28;20020;-69
2022/11/24 14:32:22;;;;;;;2.40;1.55;;;;;;;;;;5069231;28;20111;-68
2022/11/24 14:34:48;;;;;;;13.82;5.43;;;;;;;;;;5070962;28;20087;-69
2022/11/24 14:37:13;;;;;;;0.40;0.40;;;;;;;;;;5067261;28;20052;-71
2022/11/24 14:39:40;;;;;;;4.32;0.90;;;;;;;;;;5069142;28;20051;-68
2022/11/24 14:42:14;;;;;;;1.90;0.65;;;;;;;;;;5069241;28;20132;-69
2022/11/24 14:44:39;;;;;;;0.40;0.40;;;;;;;;;;5067654;28;20029;-70
2022/11/24 14:47:06;;;;;;;0.88;0.85;;;;;;;;;;5068270;28;20032;-69
2022/11/24 14:49:33;;;;;;;5.00;1.38;;;;;;;;;;5070034;28;20028;-70